createdAt,value
2019-01-26T00:03:55.631Z,28.299999
2019-01-26T00:08:57.972Z,21.5
2019-01-26T00:14:00.148Z,17
2019-01-26T00:19:02.447Z,24.700001
2019-01-26T00:24:04.776Z,27.700001
2019-01-26T00:29:07.020Z,22.4
2019-01-26T00:34:09.279Z,22.4
2019-01-26T00:39:11.734Z,24.6
2019-01-26T00:44:13.825Z,22.5
2019-01-26T00:49:16.155Z,18.9
2019-01-26T00:54:19.793Z,22
2019-01-26T00:59:22.125Z,22
2019-01-26T01:04:23.058Z,20.700001
2019-01-26T01:09:25.451Z,16.6
2019-01-26T01:14:27.597Z,20.799999
2019-01-26T01:19:30.060Z,23.299999
2019-01-26T01:24:32.333Z,21.700001
2019-01-26T01:29:34.528Z,17.799999
2019-01-26T01:34:38.479Z,20
2019-01-26T01:39:39.113Z,23
2019-01-26T01:44:41.429Z,20.200001
2019-01-26T01:49:43.863Z,21.299999
2019-01-26T01:54:45.935Z,21.5
2019-01-26T01:59:48.310Z,19.4
2019-01-26T02:04:50.666Z,19.9
2019-01-26T02:09:52.965Z,15.3
2019-01-26T02:14:55.234Z,18.6
2019-01-26T02:19:57.508Z,16.1
2019-01-26T02:24:59.835Z,14.2
2019-01-26T02:30:02.100Z,19
2019-01-26T02:35:04.588Z,21.4
2019-01-26T02:40:06.616Z,23.4
2019-01-26T02:45:09.074Z,16.700001
2019-01-26T02:50:11.246Z,19.5
2019-01-26T02:55:13.570Z,13.2
2019-01-26T03:00:17.601Z,20.299999
2019-01-26T03:05:18.297Z,17.299999
2019-01-26T03:10:20.455Z,22
2019-01-26T03:15:22.861Z,14.7
2019-01-26T03:20:26.680Z,15.2
2019-01-26T03:25:27.525Z,18.200001
2019-01-26T03:30:29.590Z,15.2
2019-01-26T03:35:31.841Z,23.299999
2019-01-26T03:40:34.256Z,15.7
2019-01-26T03:45:36.427Z,15.3
2019-01-26T03:50:40.644Z,17.4
2019-01-26T03:55:40.980Z,15.8
2019-01-26T04:00:43.462Z,16.4
2019-01-26T04:05:45.653Z,16.700001
2019-01-26T04:10:48.169Z,20.200001
2019-01-26T04:15:50.378Z,19.299999
2019-01-26T04:20:52.621Z,19
2019-01-26T04:25:56.015Z,26.4
2019-01-26T04:30:57.104Z,26.700001
2019-01-26T04:35:59.462Z,20.4
2019-01-26T04:41:01.743Z,25.6
2019-01-26T04:46:04.001Z,25.4
2019-01-26T04:51:06.346Z,23
2019-01-26T04:56:08.586Z,28.1
2019-01-26T05:01:11.006Z,27.4
2019-01-26T05:06:13.196Z,25.299999
2019-01-26T05:11:15.478Z,25
2019-01-26T05:16:19.056Z,23.6
2019-01-26T05:21:20.054Z,27.9
2019-01-26T05:26:22.481Z,20.9
2019-01-26T05:31:24.700Z,23.5
2019-01-26T05:36:27.045Z,17.700001
2019-01-26T05:41:29.237Z,26.9
2019-01-26T05:46:31.501Z,23.5
2019-01-26T05:51:33.748Z,26.299999
2019-01-26T05:56:36.292Z,29.200001
2019-01-26T06:01:38.332Z,18.299999
2019-01-26T06:06:40.767Z,18.1
2019-01-26T06:11:44.517Z,20.700001
2019-01-26T06:16:45.360Z,22.700001
2019-01-26T06:21:47.494Z,12.8
2019-01-26T06:26:49.938Z,15.7
2019-01-26T06:31:52.310Z,23.700001
2019-01-26T06:36:54.467Z,18.799999
2019-01-26T06:41:57.911Z,21.299999
2019-01-26T06:46:59.111Z,21.5
2019-01-26T06:52:01.267Z,24.299999
2019-01-26T06:57:03.564Z,21
2019-01-26T07:07:08.185Z,19.299999
2019-01-26T07:12:10.496Z,18.4
2019-01-26T07:17:16.821Z,19.9
2019-01-26T07:22:15.154Z,13.6
2019-01-26T07:27:17.467Z,15.9
2019-01-26T07:32:19.691Z,18.6
2019-01-26T07:37:22.051Z,15.9
2019-01-26T07:42:24.354Z,10.7
2019-01-26T07:47:26.542Z,18.5
2019-01-26T07:52:28.828Z,17.299999
2019-01-26T07:57:31.196Z,16.6
2019-01-26T08:02:33.564Z,17.200001
2019-01-26T08:07:35.740Z,12.2
2019-01-26T08:12:37.977Z,13.5
2019-01-26T08:17:40.336Z,15.9
2019-01-26T08:22:42.752Z,11.6
2019-01-26T08:27:44.937Z,14.4
2019-01-26T08:32:47.268Z,14.8
2019-01-26T08:37:49.703Z,13.3
2019-01-26T08:42:52.866Z,11.5
2019-01-26T08:47:54.070Z,13
2019-01-26T08:52:56.335Z,11.3
2019-01-26T08:57:58.720Z,10.7
2019-01-26T09:03:01.023Z,11.5
2019-01-26T09:08:03.295Z,15.2
2019-01-26T09:13:05.708Z,12.7
2019-01-26T09:18:07.951Z,13.3
2019-01-26T09:23:14.226Z,12.8
2019-01-26T09:28:12.472Z,11.3
2019-01-26T09:33:14.859Z,10.4
2019-01-26T09:38:16.948Z,8.5
2019-01-26T09:43:19.374Z,12.2
2019-01-26T09:48:21.623Z,9.9
2019-01-26T09:53:23.988Z,8.6
2019-01-26T09:58:26.281Z,9.5
2019-01-26T10:03:28.578Z,12.5
2019-01-26T10:08:30.811Z,12.5
2019-01-26T10:13:34.301Z,13.1
2019-01-26T10:18:35.477Z,11.2
2019-01-26T10:23:38.726Z,11.6
2019-01-26T10:28:40.057Z,12.1
2019-01-26T10:33:42.281Z,9.1
2019-01-26T10:38:44.538Z,9
2019-01-26T10:43:46.796Z,9.2
2019-01-26T10:48:49.178Z,7.4
2019-01-26T10:53:51.495Z,13.8
2019-01-26T10:58:53.697Z,11.2
2019-01-26T11:03:56.035Z,12.1
2019-01-26T11:08:58.388Z,13.2
2019-01-26T11:14:00.646Z,9.9
2019-01-26T11:19:07.870Z,7.3
2019-01-26T11:24:05.233Z,9.7
2019-01-26T11:29:07.624Z,6.1
2019-01-26T11:34:09.828Z,13.4
2019-01-26T11:39:12.277Z,5.6
2019-01-26T11:44:14.444Z,5.5
2019-01-26T11:49:16.635Z,8.1
2019-01-26T11:54:19.034Z,10.3
2019-01-26T11:59:21.285Z,10.7
2019-01-26T12:04:23.529Z,8.3
2019-01-26T12:09:25.785Z,9.2
2019-01-26T12:14:28.371Z,9.5
2019-01-26T12:19:30.494Z,6.3
2019-01-26T12:24:32.797Z,3.6
2019-01-26T12:29:34.968Z,3.2
2019-01-26T12:34:37.368Z,5.2
2019-01-26T12:39:39.549Z,3.4
2019-01-26T12:44:46.291Z,4.8
2019-01-26T12:49:44.395Z,3.8
2019-01-26T12:54:46.485Z,4.1
2019-01-26T12:59:48.815Z,3.5
2019-01-26T13:04:51.099Z,3.5
2019-01-26T13:09:53.419Z,5.1
2019-01-26T13:14:55.658Z,6.6
2019-01-26T13:19:58.078Z,5.9
2019-01-26T13:30:02.533Z,4.3
2019-01-26T13:35:04.950Z,4.9
2019-01-26T13:40:11.382Z,8
2019-01-26T13:45:09.406Z,5.9
2019-01-26T13:50:11.734Z,5.1
2019-01-26T13:55:13.957Z,5.9
2019-01-26T14:00:16.325Z,6.4
2019-01-26T14:05:18.567Z,7.4
2019-01-26T14:10:21.085Z,4.2
2019-01-26T14:15:23.282Z,4.7
2019-01-26T14:20:25.543Z,4.1
2019-01-26T14:25:27.911Z,5.4
2019-01-26T14:30:30.127Z,5.7
2019-01-26T14:35:32.407Z,5.9
2019-01-26T14:40:34.645Z,5.4
2019-01-26T14:45:37.074Z,5.3
2019-01-26T14:50:39.274Z,6.9
2019-01-26T14:55:41.565Z,6.3
2019-01-26T15:00:43.849Z,5.5
2019-01-26T15:05:46.227Z,5.5
2019-01-26T15:10:50.091Z,7.1
2019-01-26T15:15:50.823Z,7.8
2019-01-26T15:20:53.149Z,5.6
2019-01-26T15:25:55.385Z,4.6
2019-01-26T15:30:57.633Z,4.8
2019-01-26T15:35:59.968Z,4.9
2019-01-26T15:41:02.250Z,4.8
2019-01-26T15:46:04.481Z,6.5
2019-01-26T15:51:06.751Z,6.9
2019-01-26T15:56:09.190Z,9.1
2019-01-26T16:01:11.378Z,5.5
2019-01-26T16:11:15.994Z,8.2
2019-01-26T16:16:18.213Z,5.4
2019-01-26T16:21:20.635Z,5.9
2019-01-26T16:26:23.076Z,7.6
2019-01-26T16:31:25.178Z,6.1
2019-01-26T16:36:27.543Z,5.9
2019-01-26T16:41:29.766Z,6.9
2019-01-26T16:46:33.059Z,7
2019-01-26T16:56:36.574Z,7.3
2019-01-26T17:01:38.915Z,8.5
2019-01-26T17:06:41.267Z,8.8
2019-01-26T17:11:43.522Z,5.9
2019-01-26T17:16:45.743Z,8.8
2019-01-26T17:21:48.167Z,9.7
2019-01-26T17:26:52.899Z,10.6
2019-01-26T17:31:52.646Z,11.6
2019-01-26T17:42:10.349Z,13.1
2019-01-26T17:47:10.549Z,4
2019-01-26T17:52:12.770Z,7.8
2019-01-26T17:57:15.083Z,6.7
2019-01-26T18:02:17.501Z,5.2
2019-01-26T18:07:19.742Z,3.3
2019-01-26T18:12:21.992Z,5.3
2019-01-26T18:17:24.585Z,6.3
2019-01-26T18:22:26.735Z,3.7
2019-01-26T18:27:28.971Z,6.5
2019-01-26T18:32:31.213Z,3.8
2019-01-26T18:37:33.546Z,4.8
2019-01-26T18:42:37.057Z,5.7
2019-01-26T18:47:38.190Z,4.6
2019-01-26T18:52:40.407Z,3.8
2019-01-26T18:57:42.644Z,3.5
2019-01-26T19:02:44.970Z,2.4
2019-01-26T19:07:47.367Z,3.4
2019-01-26T19:12:49.600Z,4.3
2019-01-26T19:17:51.913Z,4.9
2019-01-26T19:22:54.187Z,2.9
2019-01-26T19:27:56.434Z,3.3
2019-01-26T19:32:58.734Z,3
2019-01-26T19:38:01.158Z,1.6
2019-01-26T19:43:03.335Z,3.5
2019-01-26T19:48:05.626Z,2.2
2019-01-26T19:53:09.005Z,2.1
2019-01-26T19:58:10.421Z,1.8
2019-01-26T20:03:12.522Z,2
2019-01-26T20:08:14.802Z,2.1
2019-01-26T20:13:17.200Z,2.3
2019-01-26T20:18:19.342Z,3.1
2019-01-26T20:23:23.471Z,1.3
2019-01-26T20:28:25.487Z,1.4
2019-01-26T20:33:26.268Z,3.1
2019-01-26T20:38:28.539Z,5.1
2019-01-26T20:43:30.858Z,2.2
2019-01-26T20:53:35.380Z,3.4
2019-01-26T20:58:37.719Z,1
2019-01-26T21:03:40.034Z,3.5
2019-01-26T21:08:42.287Z,1.4
2019-01-26T21:13:44.657Z,3.9
2019-01-26T21:18:46.974Z,3.3
2019-01-26T21:23:49.129Z,4
2019-01-26T21:28:51.507Z,4
2019-01-26T21:33:54.923Z,4
2019-01-26T21:38:56.037Z,3.4
2019-01-26T21:43:58.490Z,4.2
2019-01-26T21:49:00.812Z,2.4
2019-01-26T21:54:02.928Z,1.7
2019-01-26T21:59:05.302Z,2.5
2019-01-26T22:04:07.636Z,4.5
2019-01-26T22:09:09.935Z,4
2019-01-26T22:19:14.345Z,5.4
2019-01-26T22:24:16.849Z,3.5
2019-01-26T22:29:18.969Z,2.9
2019-01-26T22:34:21.235Z,4.1
2019-01-26T22:39:23.525Z,4.9
2019-01-26T22:44:25.887Z,2.7
2019-01-26T22:49:28.141Z,4.6
2019-01-26T22:54:30.655Z,3
2019-01-26T22:59:32.911Z,3.6
2019-01-26T23:04:35.039Z,4.2
2019-01-26T23:09:37.338Z,2.8
2019-01-26T23:14:39.706Z,4.2
2019-01-26T23:19:41.970Z,3.6
2019-01-26T23:24:44.305Z,6.1
2019-01-26T23:30:00.337Z,2.5
2019-01-26T23:34:49.796Z,2.6
2019-01-26T23:39:51.144Z,4
2019-01-26T23:44:53.500Z,2.5
2019-01-26T23:49:55.786Z,3.2
2019-01-26T23:54:58.021Z,4.2
